THY188 LTFM-VTSP
Flight info
| Callsign | THY188 |
|---|---|
| Flight time | N/A |
| Altitude | 37000 |
| Route | EKAWE1D/35L EKAWE UT643 GAKSU UT310 SIN DCT REBLO DCT PEMAN/N0488F390 N161 EDATA M11 LUSAL N701 BAKUV DCT NAMAS N35 RODAR A909 TUNEK B143 KRS A240 INRAK B449 RANAH L750 ZB G202 RK P628 IBANI L510 GOGVE/N0489F410 L510 GURVI T1 BBS L759 SATVA SATVA1C |
| Aircraft | A359/H-SDE2E3GHIJ3J4J5LM1ORWXY/LB1D1 |
Departure
| Time | 2026-05-04 10:59 |
|---|---|
| Airport | İstanbul Airport (LTFM) |
Arrival
| Time | N/A |
|---|---|
| Airport | Phuket International Airport (VTSP) |
| Time | Latitude | Longitude | Altitude | Speed | Heading |
|---|---|---|---|---|---|
| 2026-05-04 10:09 | 41.26549 | 28.73487 | 340 ft | 0 kts | 74° |
| 2026-05-04 10:11 | 41.26549 | 28.73486 | 340 ft | 0 kts | 74° |
| 2026-05-04 10:51 | 41.26548 | 28.73482 | 335 ft | 3 kts | 74° |
| 2026-05-04 10:52 | 41.26540 | 28.73448 | 336 ft | 4 kts | 69° |
| 2026-05-04 10:52 | 41.26532 | 28.73418 | 337 ft | 4 kts | 65° |
| 2026-05-04 10:52 | 41.26517 | 28.73396 | 335 ft | 4 kts | 4° |
| 2026-05-04 10:54 | 41.26480 | 28.73408 | 340 ft | 0 kts | 341° |
| 2026-05-04 10:56 | 41.26556 | 28.73372 | 335 ft | 11 kts | 340° |
| 2026-05-04 10:56 | 41.26598 | 28.73284 | 336 ft | 14 kts | 274° |
| 2026-05-04 10:56 | 41.26598 | 28.73134 | 336 ft | 19 kts | 269° |
| 2026-05-04 10:57 | 41.26596 | 28.72985 | 336 ft | 0 kts | 269° |
| 2026-05-04 10:57 | 41.26596 | 28.72969 | 337 ft | 7 kts | 269° |
| 2026-05-04 10:57 | 41.26594 | 28.72848 | 337 ft | 15 kts | 269° |
| 2026-05-04 10:57 | 41.26591 | 28.72661 | 340 ft | 20 kts | 269° |
| 2026-05-04 10:58 | 41.26603 | 28.72547 | 336 ft | 13 kts | 314° |
| 2026-05-04 10:58 | 41.26682 | 28.72515 | 339 ft | 0 kts | 356° |
| 2026-05-04 10:58 | 41.26757 | 28.72512 | 338 ft | 35 kts | 359° |
| 2026-05-04 10:58 | 41.27205 | 28.72503 | 336 ft | 92 kts | 359° |
| 2026-05-04 10:59 | 41.28011 | 28.72483 | 335 ft | 139 kts | 359° |
| 2026-05-04 10:59 | 41.29106 | 28.72471 | 493 ft | 168 kts | 358° |
| 2026-05-04 10:59 | 41.30269 | 28.72444 | 1113 ft | 166 kts | 356° |
| 2026-05-04 10:59 | 41.31417 | 28.72310 | 1851 ft | 163 kts | 352° |
| 2026-05-04 11:00 | 41.32518 | 28.72095 | 2457 ft | 162 kts | 356° |
| 2026-05-04 11:01 | 41.42378 | 28.69924 | 4971 ft | 240 kts | 335° |
| 2026-05-04 11:02 | 41.43885 | 28.68948 | 4996 ft | 241 kts | 336° |
| 2026-05-04 11:02 | 41.45393 | 28.67976 | 5074 ft | 241 kts | 335° |
| 2026-05-04 11:05 | 41.65285 | 28.76245 | 12539 ft | 336 kts | 52° |
| 2026-05-04 11:06 | 41.66570 | 28.78929 | 12871 ft | 348 kts | 52° |
| 2026-05-04 11:06 | 41.67885 | 28.81678 | 13392 ft | 353 kts | 52° |
| 2026-05-04 11:06 | 41.69221 | 28.84469 | 13875 ft | 357 kts | 52° |
| 2026-05-04 11:06 | 41.70560 | 28.87270 | 14012 ft | 358 kts | 52° |
| 2026-05-04 11:08 | 41.78634 | 29.08367 | 16362 ft | 374 kts | 61° |
| 2026-05-04 11:10 | 41.86512 | 29.31297 | 19833 ft | 395 kts | 63° |
| 2026-05-04 11:12 | 41.96937 | 29.53113 | 23376 ft | 408 kts | 48° |
| 2026-05-04 11:12 | 41.98817 | 29.55980 | 23827 ft | 410 kts | 48° |
| 2026-05-04 11:12 | 42.00679 | 29.58828 | 24231 ft | 412 kts | 48° |
| 2026-05-04 11:12 | 42.02505 | 29.61820 | 24626 ft | 415 kts | 53° |
| 2026-05-04 11:13 | 42.04009 | 29.65143 | 25026 ft | 418 kts | 62° |
| 2026-05-04 11:13 | 42.05065 | 29.68805 | 25434 ft | 423 kts | 72° |
| 2026-05-04 11:13 | 42.05617 | 29.72719 | 25828 ft | 429 kts | 81° |
| 2026-05-04 11:13 | 42.05640 | 29.76754 | 26225 ft | 435 kts | 90° |
| 2026-05-04 11:14 | 42.05384 | 29.80834 | 26621 ft | 438 kts | 91° |
| 2026-05-04 11:14 | 42.05083 | 29.84924 | 27020 ft | 440 kts | 91° |
| 2026-05-04 11:14 | 42.04781 | 29.89034 | 27407 ft | 442 kts | 91° |
| 2026-05-04 11:16 | 42.00183 | 30.17622 | 30017 ft | 472 kts | 118° |
| 2026-05-04 11:16 | 41.98305 | 30.21250 | 30348 ft | 474 kts | 120° |
| 2026-05-04 11:16 | 41.96347 | 30.24817 | 30745 ft | 474 kts | 121° |
| 2026-05-04 11:17 | 41.94359 | 30.28354 | 30991 ft | 475 kts | 121° |
| 2026-05-04 11:17 | 41.92360 | 30.31889 | 31320 ft | 475 kts | 121° |
| 2026-05-04 11:19 | 41.79138 | 30.56855 | 33426 ft | 462 kts | 109° |
| 2026-05-04 11:19 | 41.78034 | 30.60859 | 33724 ft | 456 kts | 101° |
| 2026-05-04 11:19 | 41.77383 | 30.64982 | 33981 ft | 450 kts | 93° |
| 2026-05-04 11:19 | 41.77198 | 30.69140 | 34153 ft | 446 kts | 85° |
| 2026-05-04 11:20 | 41.77477 | 30.73274 | 34288 ft | 444 kts | 77° |
| 2026-05-04 11:20 | 41.78112 | 30.77321 | 34433 ft | 444 kts | 75° |
| 2026-05-04 11:20 | 41.78851 | 30.81348 | 34579 ft | 445 kts | 73° |
| 2026-05-04 11:20 | 41.79631 | 30.85366 | 34697 ft | 447 kts | 73° |
| 2026-05-04 11:22 | 41.85133 | 31.13820 | 35653 ft | 454 kts | 72° |
| 2026-05-04 11:22 | 41.86008 | 31.17898 | 35788 ft | 454 kts | 72° |
| 2026-05-04 11:23 | 41.86900 | 31.21973 | 35905 ft | 455 kts | 72° |
| 2026-05-04 11:23 | 41.87794 | 31.26059 | 36031 ft | 456 kts | 72° |
| 2026-05-04 11:24 | 41.93061 | 31.50811 | 36714 ft | 463 kts | 73° |
| 2026-05-04 11:25 | 41.93933 | 31.54975 | 36820 ft | 464 kts | 73° |
| 2026-05-04 11:25 | 41.95389 | 31.61932 | 36899 ft | 468 kts | 73° |
| 2026-05-04 11:27 | 42.03280 | 31.99981 | 36878 ft | 470 kts | 74° |
| 2026-05-04 11:28 | 42.05018 | 32.08456 | 36880 ft | 470 kts | 74° |
| 2026-05-04 11:28 | 42.06751 | 32.16934 | 36874 ft | 470 kts | 74° |
| 2026-05-04 11:29 | 42.08479 | 32.25423 | 36875 ft | 470 kts | 74° |
| 2026-05-04 11:29 | 42.10273 | 32.33883 | 36874 ft | 470 kts | 72° |
| 2026-05-04 11:31 | 42.16556 | 32.63375 | 36865 ft | 470 kts | 84° |
| 2026-05-04 11:33 | 42.17378 | 32.94235 | 36858 ft | 471 kts | 87° |
| 2026-05-04 11:33 | 42.17559 | 33.03056 | 36864 ft | 471 kts | 87° |
| 2026-05-04 11:34 | 42.17739 | 33.11871 | 36856 ft | 471 kts | 87° |
| 2026-05-04 11:34 | 42.17914 | 33.20691 | 36854 ft | 471 kts | 87° |
| 2026-05-04 11:35 | 42.18080 | 33.29520 | 36846 ft | 470 kts | 87° |
| 2026-05-04 11:35 | 42.18239 | 33.38293 | 36852 ft | 471 kts | 88° |
| 2026-05-04 11:36 | 42.18393 | 33.47140 | 36852 ft | 472 kts | 88° |
| 2026-05-04 11:36 | 42.18539 | 33.55982 | 36843 ft | 471 kts | 88° |
| 2026-05-04 11:37 | 42.18678 | 33.64809 | 36843 ft | 470 kts | 88° |
| 2026-05-04 11:37 | 42.18810 | 33.73622 | 36839 ft | 470 kts | 88° |
| 2026-05-04 11:38 | 42.18686 | 33.82440 | 36837 ft | 471 kts | 97° |
| 2026-05-04 11:38 | 42.17749 | 33.91198 | 36836 ft | 472 kts | 98° |
| 2026-05-04 11:39 | 42.16660 | 33.99943 | 36836 ft | 473 kts | 98° |
| 2026-05-04 11:41 | 42.12773 | 34.30518 | 36828 ft | 476 kts | 99° |
| 2026-05-04 11:41 | 42.11653 | 34.39287 | 36837 ft | 474 kts | 99° |
| 2026-05-04 11:42 | 42.10519 | 34.48038 | 36834 ft | 474 kts | 99° |
| 2026-05-04 11:42 | 42.09319 | 34.56709 | 36839 ft | 474 kts | 100° |
| 2026-05-04 11:43 | 42.08090 | 34.65433 | 36838 ft | 474 kts | 100° |
| 2026-05-04 11:43 | 42.06864 | 34.74155 | 36836 ft | 474 kts | 100° |
| 2026-05-04 11:44 | 42.05639 | 34.82877 | 36837 ft | 474 kts | 100° |
| 2026-05-04 11:44 | 42.04426 | 34.91613 | 36840 ft | 476 kts | 100° |
| 2026-05-04 11:45 | 42.03259 | 35.00387 | 36838 ft | 477 kts | 100° |
| 2026-05-04 11:45 | 42.02093 | 35.09175 | 36839 ft | 477 kts | 99° |
| 2026-05-04 11:46 | 42.01160 | 35.17999 | 36842 ft | 477 kts | 97° |
| 2026-05-04 11:46 | 42.00352 | 35.26871 | 36830 ft | 479 kts | 97° |
| 2026-05-04 11:47 | 41.99508 | 35.35750 | 36838 ft | 479 kts | 97° |
| 2026-05-04 11:47 | 41.98621 | 35.44635 | 36840 ft | 479 kts | 98° |
| 2026-05-04 11:48 | 41.97716 | 35.53508 | 36838 ft | 479 kts | 98° |
| 2026-05-04 11:48 | 41.96803 | 35.62387 | 36838 ft | 480 kts | 98° |
| 2026-05-04 11:49 | 41.95883 | 35.71277 | 36837 ft | 481 kts | 98° |
| 2026-05-04 11:49 | 41.94956 | 35.80176 | 36836 ft | 481 kts | 98° |
| 2026-05-04 11:50 | 41.94022 | 35.89081 | 36835 ft | 481 kts | 98° |
| 2026-05-04 11:50 | 41.93088 | 35.97921 | 36831 ft | 482 kts | 99° |
| 2026-05-04 11:51 | 41.92137 | 36.06842 | 36832 ft | 483 kts | 99° |
| 2026-05-04 11:51 | 41.91179 | 36.15764 | 36825 ft | 482 kts | 99° |